createdAt,value
2023-03-30T00:01:59.531Z,3.20
2023-03-30T00:04:45.932Z,2.80
2023-03-30T00:07:32.069Z,3.20
2023-03-30T00:10:19.352Z,2.78
2023-03-30T00:13:05.974Z,2.67
2023-03-30T00:15:52.706Z,3.03
2023-03-30T00:18:39.598Z,3.17
2023-03-30T00:21:25.854Z,3.85
2023-03-30T00:24:12.100Z,3.80
2023-03-30T00:26:57.916Z,3.53
2023-03-30T00:29:43.628Z,3.22
2023-03-30T00:32:29.990Z,3.42
2023-03-30T00:35:16.031Z,2.88
2023-03-30T00:38:03.297Z,2.70
2023-03-30T00:40:53.625Z,3.00
2023-03-30T00:44:34.005Z,2.42
2023-03-30T00:47:20.348Z,2.35
2023-03-30T00:50:08.071Z,2.22
2023-03-30T00:52:55.218Z,2.30
2023-03-30T00:55:41.735Z,2.78
2023-03-30T00:58:28.396Z,2.72
2023-03-30T01:01:16.274Z,2.60
2023-03-30T01:04:02.316Z,5.10
2023-03-30T01:06:52.214Z,21.58
2023-03-30T01:09:41.020Z,23.15
2023-03-30T01:12:27.725Z,9.23
2023-03-30T01:15:13.603Z,8.18
2023-03-30T01:18:17.618Z,5.28
2023-03-30T01:21:23.973Z,3.70
2023-03-30T01:24:16.069Z,3.80
2023-03-30T01:27:46.153Z,3.42
2023-03-30T01:30:44.395Z,3.25
2023-03-30T01:33:30.826Z,3.00
2023-03-30T01:36:31.244Z,3.75
2023-03-30T01:39:57.234Z,3.30
2023-03-30T01:42:55.412Z,3.15
2023-03-30T01:45:45.027Z,4.07
2023-03-30T01:48:55.979Z,3.58
2023-03-30T01:51:47.614Z,3.65
2023-03-30T01:54:38.447Z,4.00
2023-03-30T01:57:31.588Z,2.50
2023-03-30T02:00:21.306Z,4.05
2023-03-30T02:03:14.152Z,4.47
2023-03-30T02:06:04.992Z,4.38
2023-03-30T02:08:52.302Z,4.13
2023-03-30T02:11:41.867Z,5.05
2023-03-30T02:14:31.272Z,4.32
2023-03-30T02:17:24.778Z,4.15
2023-03-30T02:20:12.366Z,5.00
2023-03-30T02:22:58.296Z,5.28
2023-03-30T02:25:46.040Z,3.60
2023-03-30T02:28:32.588Z,4.75
2023-03-30T02:31:20.268Z,4.40
2023-03-30T02:34:10.531Z,4.30
2023-03-30T02:37:10.061Z,4.70
2023-03-30T02:40:23.923Z,4.32
2023-03-30T02:43:22.294Z,4.45
2023-03-30T02:46:11.494Z,6.10
2023-03-30T02:49:14.243Z,48.60
2023-03-30T02:52:11.694Z,29.23
2023-03-30T02:55:29.412Z,26.67
2023-03-30T02:58:37.170Z,23.10
2023-03-30T03:01:35.578Z,17.52
2023-03-30T03:04:34.261Z,14.15
2023-03-30T03:07:45.570Z,11.95
2023-03-30T03:10:31.461Z,8.75
2023-03-30T03:13:19.101Z,9.25
2023-03-30T03:16:08.019Z,6.78
2023-03-30T03:18:54.593Z,6.60
2023-03-30T03:21:40.655Z,6.88
2023-03-30T03:24:26.890Z,6.13
2023-03-30T03:27:38.720Z,5.93
2023-03-30T03:30:34.107Z,5.70
2023-03-30T03:33:29.010Z,5.65
2023-03-30T03:36:22.761Z,4.90
2023-03-30T03:39:11.886Z,6.15
2023-03-30T03:41:58.775Z,5.75
2023-03-30T03:44:44.736Z,5.75
2023-03-30T03:47:32.367Z,5.30
2023-03-30T03:50:18.744Z,4.97
2023-03-30T03:53:05.010Z,5.15
2023-03-30T03:55:52.171Z,5.32
2023-03-30T03:58:38.135Z,4.45
2023-03-30T04:01:25.705Z,4.03
2023-03-30T04:04:11.767Z,4.20
2023-03-30T04:06:58.433Z,4.53
2023-03-30T04:09:44.398Z,4.78
2023-03-30T04:12:59.609Z,4.35
2023-03-30T04:16:08.572Z,4.45
2023-03-30T04:19:13.504Z,4.07
2023-03-30T04:22:33.117Z,3.78
2023-03-30T04:25:40.075Z,4.32
2023-03-30T04:28:44.665Z,4.38
2023-03-30T04:31:50.997Z,5.07
2023-03-30T04:34:42.751Z,5.03
2023-03-30T04:37:52.365Z,6.72
2023-03-30T04:41:05.625Z,7.57
2023-03-30T04:44:09.493Z,6.32
2023-03-30T04:47:28.402Z,5.95
2023-03-30T04:50:32.935Z,8.45
2023-03-30T04:53:47.850Z,7.30
2023-03-30T04:56:37.475Z,7.13
2023-03-30T04:59:56.394Z,6.30
2023-03-30T05:02:42.307Z,5.80
2023-03-30T05:06:00.754Z,5.78
2023-03-30T05:09:16.687Z,5.85
2023-03-30T05:12:18.457Z,5.88
2023-03-30T05:15:13.322Z,5.82
2023-03-30T05:18:28.692Z,6.45
2023-03-30T05:21:33.221Z,6.35
2023-03-30T05:24:45.284Z,6.00
2023-03-30T05:27:58.180Z,6.65
2023-03-30T05:31:06.010Z,7.03
2023-03-30T05:34:24.926Z,14.52
2023-03-30T05:37:11.120Z,13.20
2023-03-30T05:40:02.031Z,9.55
2023-03-30T05:43:00.652Z,8.68
2023-03-30T05:46:02.570Z,7.65
2023-03-30T05:49:01.023Z,7.72
2023-03-30T05:52:01.211Z,9.23
2023-03-30T05:55:10.322Z,8.95
2023-03-30T05:58:06.709Z,7.03
2023-03-30T06:01:21.574Z,7.35
2023-03-30T06:04:08.932Z,7.07
2023-03-30T06:06:56.306Z,9.32
2023-03-30T06:09:42.309Z,7.15
2023-03-30T06:12:45.494Z,6.80
2023-03-30T06:15:46.155Z,6.50
2023-03-30T06:18:37.989Z,7.15
2023-03-30T06:21:27.148Z,8.68
2023-03-30T06:24:41.594Z,7.13
2023-03-30T06:27:31.731Z,5.93
2023-03-30T06:30:18.465Z,5.65
2023-03-30T06:33:08.057Z,5.55
2023-03-30T06:35:58.428Z,4.75
2023-03-30T06:38:44.768Z,4.53
2023-03-30T06:41:31.935Z,5.20
2023-03-30T06:44:18.086Z,4.30
2023-03-30T06:47:06.356Z,4.65
2023-03-30T06:49:52.552Z,3.97
2023-03-30T06:53:17.128Z,3.83
2023-03-30T06:56:07.741Z,7.10
2023-03-30T06:59:00.205Z,4.22
2023-03-30T07:01:46.474Z,4.07
2023-03-30T07:04:52.040Z,3.65
2023-03-30T07:07:58.369Z,3.20
2023-03-30T07:10:44.553Z,2.78
2023-03-30T07:13:33.330Z,4.13
2023-03-30T07:16:19.756Z,3.60
2023-03-30T07:19:06.664Z,4.13
2023-03-30T07:21:52.561Z,3.00
2023-03-30T07:24:42.540Z,3.92
2023-03-30T07:27:29.247Z,2.55
2023-03-30T07:30:21.730Z,2.20
2023-03-30T07:33:14.869Z,2.28
2023-03-30T07:36:01.790Z,3.28
2023-03-30T07:38:48.146Z,3.78
2023-03-30T07:41:34.696Z,3.47
2023-03-30T07:44:21.742Z,3.67
2023-03-30T07:47:08.583Z,4.07
2023-03-30T07:49:56.456Z,4.35
2023-03-30T07:52:43.015Z,4.57
2023-03-30T07:55:30.861Z,4.35
2023-03-30T07:58:27.631Z,3.88
2023-03-30T08:01:13.758Z,4.25
2023-03-30T08:04:27.941Z,4.40
2023-03-30T08:07:14.575Z,3.25
2023-03-30T08:10:00.587Z,3.35
2023-03-30T08:12:46.367Z,3.58
2023-03-30T08:15:32.107Z,4.47
2023-03-30T08:18:17.799Z,3.30
2023-03-30T08:21:04.295Z,3.33
2023-03-30T08:23:50.774Z,3.10
2023-03-30T08:26:37.252Z,3.22
2023-03-30T08:29:23.573Z,3.05
2023-03-30T08:32:09.380Z,3.03
2023-03-30T08:34:55.315Z,2.90
2023-03-30T08:37:41.140Z,3.28
2023-03-30T08:40:27.216Z,4.55
2023-03-30T08:43:29.447Z,2.30
2023-03-30T08:46:17.300Z,2.13
2023-03-30T08:49:05.580Z,3.65
2023-03-30T08:51:52.310Z,3.65
2023-03-30T08:54:38.105Z,2.63
2023-03-30T08:57:48.416Z,2.20
2023-03-30T09:00:51.565Z,2.92
2023-03-30T09:03:42.944Z,2.88
2023-03-30T09:06:49.433Z,3.83
2023-03-30T09:09:42.204Z,1.85
2023-03-30T09:12:37.563Z,2.40
2023-03-30T09:15:30.513Z,1.98
2023-03-30T09:18:35.007Z,2.80
2023-03-30T09:24:16.047Z,2.25
2023-03-30T09:27:08.231Z,2.10
2023-03-30T09:29:55.909Z,3.10
2023-03-30T09:32:44.970Z,1.90
2023-03-30T09:35:39.406Z,1.42
2023-03-30T09:38:25.545Z,1.75
2023-03-30T09:41:24.504Z,1.45
2023-03-30T09:44:19.865Z,2.08
2023-03-30T09:47:36.904Z,1.80
2023-03-30T09:50:26.856Z,2.63
2023-03-30T09:53:24.942Z,1.77
2023-03-30T09:56:22.447Z,2.00
2023-03-30T09:59:29.570Z,1.73
2023-03-30T10:02:18.261Z,2.28
2023-03-30T10:05:04.719Z,2.60
2023-03-30T10:07:59.131Z,2.20
2023-03-30T10:10:45.469Z,1.70
2023-03-30T10:13:34.282Z,2.60
2023-03-30T10:16:26.271Z,2.72
2023-03-30T10:19:22.079Z,1.80
2023-03-30T10:22:19.013Z,2.67
2023-03-30T10:25:10.223Z,2.90
2023-03-30T10:27:58.379Z,3.70
2023-03-30T10:30:51.777Z,3.17
2023-03-30T10:33:43.184Z,2.67
2023-03-30T10:36:39.980Z,4.15
2023-03-30T10:39:28.222Z,2.20
2023-03-30T10:42:16.645Z,2.60
2023-03-30T10:45:06.948Z,2.10
2023-03-30T10:48:03.090Z,2.42
2023-03-30T10:51:07.795Z,2.60
2023-03-30T10:54:03.882Z,3.33
2023-03-30T10:56:53.942Z,3.30
2023-03-30T10:59:49.252Z,2.20
2023-03-30T11:03:29.780Z,2.20
2023-03-30T11:06:28.143Z,3.03
2023-03-30T11:09:17.734Z,3.17
2023-03-30T11:12:17.667Z,2.97
2023-03-30T11:15:07.785Z,4.07
2023-03-30T11:17:56.407Z,4.55
2023-03-30T11:20:51.765Z,5.65
2023-03-30T11:23:53.434Z,3.22
2023-03-30T11:26:46.052Z,8.80
2023-03-30T11:32:26.312Z,4.97
2023-03-30T11:35:35.281Z,2.78
2023-03-30T11:39:07.103Z,4.38
2023-03-30T11:42:00.122Z,3.20
2023-03-30T11:44:46.636Z,3.08
2023-03-30T11:47:41.913Z,3.05
2023-03-30T11:50:52.094Z,3.80
2023-03-30T11:53:52.342Z,2.60
2023-03-30T11:56:47.236Z,2.42
2023-03-30T11:59:46.303Z,2.53
2023-03-30T12:02:48.755Z,2.50
2023-03-30T12:05:44.239Z,2.03
2023-03-30T12:09:11.728Z,2.08
2023-03-30T12:12:15.987Z,2.42
2023-03-30T12:15:14.084Z,1.83
2023-03-30T12:18:05.483Z,3.10
2023-03-30T12:21:27.298Z,2.72
2023-03-30T12:24:18.660Z,2.58
2023-03-30T12:27:06.381Z,2.35
2023-03-30T12:32:59.061Z,2.67
2023-03-30T12:35:48.078Z,2.58
2023-03-30T12:38:46.281Z,3.58
2023-03-30T12:41:49.979Z,2.58
2023-03-30T12:44:50.799Z,2.88
2023-03-30T12:48:01.667Z,2.90
2023-03-30T12:51:18.190Z,2.80
2023-03-30T12:54:51.787Z,4.07
2023-03-30T12:58:13.403Z,2.42
2023-03-30T13:01:27.336Z,2.60
2023-03-30T13:04:23.945Z,2.60
2023-03-30T13:07:22.293Z,2.40
2023-03-30T13:10:43.956Z,2.83
2023-03-30T13:13:54.681Z,2.10
2023-03-30T13:16:48.918Z,2.50
2023-03-30T13:19:34.726Z,2.72
2023-03-30T13:22:27.934Z,2.90
2023-03-30T13:25:20.334Z,2.85
2023-03-30T13:28:44.059Z,3.10
2023-03-30T13:31:48.383Z,5.15
2023-03-30T13:35:12.395Z,6.68
2023-03-30T13:38:16.843Z,3.28
2023-03-30T13:41:20.997Z,4.25
2023-03-30T13:44:09.980Z,3.83
2023-03-30T13:47:22.931Z,3.97
2023-03-30T13:50:27.373Z,3.28
2023-03-30T13:53:15.428Z,3.63
2023-03-30T13:56:01.981Z,2.53
2023-03-30T13:59:10.089Z,2.55
2023-03-30T14:01:58.808Z,2.70
2023-03-30T14:04:45.350Z,2.50
2023-03-30T14:07:42.747Z,3.10
2023-03-30T14:10:29.207Z,3.53
2023-03-30T14:13:16.355Z,3.20
2023-03-30T14:16:05.009Z,3.92
2023-03-30T14:18:51.455Z,1.98
2023-03-30T14:21:38.062Z,2.55
2023-03-30T14:25:03.234Z,2.30
2023-03-30T14:27:49.330Z,3.47
2023-03-30T14:30:35.238Z,2.47
2023-03-30T14:33:23.372Z,2.55
2023-03-30T14:36:12.847Z,2.45
2023-03-30T14:38:59.121Z,3.90
2023-03-30T14:41:45.132Z,4.13
2023-03-30T14:44:30.810Z,4.10
2023-03-30T14:47:19.802Z,2.83
2023-03-30T14:50:10.751Z,2.28
2023-03-30T14:52:57.077Z,1.90
2023-03-30T14:55:42.994Z,2.88
2023-03-30T14:58:31.598Z,2.45
2023-03-30T15:01:23.712Z,3.08
2023-03-30T15:04:17.345Z,2.83
2023-03-30T15:07:03.879Z,2.17
2023-03-30T15:09:57.602Z,2.58
2023-03-30T15:12:48.904Z,3.58
2023-03-30T15:15:35.522Z,2.25
2023-03-30T15:18:25.106Z,2.15
2023-03-30T15:21:12.928Z,2.25
2023-03-30T15:24:00.467Z,2.00
2023-03-30T15:26:48.854Z,2.78
2023-03-30T15:29:34.778Z,2.72
2023-03-30T15:32:35.234Z,3.17
2023-03-30T15:35:36.466Z,3.20
2023-03-30T15:38:31.400Z,3.08
2023-03-30T15:41:18.927Z,2.90
2023-03-30T15:44:12.931Z,3.67
2023-03-30T15:47:00.878Z,3.60
2023-03-30T15:49:49.641Z,3.70
2023-03-30T15:52:37.394Z,4.57
2023-03-30T15:55:29.283Z,4.72
2023-03-30T15:58:19.166Z,3.20
2023-03-30T16:01:06.134Z,2.85
2023-03-30T16:03:57.090Z,4.10
2023-03-30T16:06:45.195Z,3.25
2023-03-30T16:09:32.675Z,3.33
2023-03-30T16:12:22.185Z,3.97
2023-03-30T16:15:14.055Z,3.63
2023-03-30T16:18:00.699Z,3.03
2023-03-30T16:20:46.607Z,3.25
2023-03-30T16:23:32.673Z,3.47
2023-03-30T16:26:18.864Z,2.42
2023-03-30T16:29:04.782Z,3.00
2023-03-30T16:31:51.607Z,3.40
2023-03-30T16:34:37.635Z,2.97
2023-03-30T16:37:23.557Z,4.07
2023-03-30T16:40:24.061Z,3.67
2023-03-30T16:43:10.404Z,5.00
2023-03-30T16:45:57.130Z,4.40
2023-03-30T16:48:43.058Z,5.00
2023-03-30T16:51:29.473Z,4.50
2023-03-30T16:54:29.552Z,6.97
2023-03-30T16:57:17.504Z,4.43
2023-03-30T17:00:15.375Z,5.68
2023-03-30T17:03:01.688Z,5.63
2023-03-30T17:05:51.484Z,5.18
2023-03-30T17:08:37.499Z,5.82
2023-03-30T17:11:23.359Z,5.22
2023-03-30T17:14:09.478Z,5.63
2023-03-30T17:16:55.668Z,4.82
2023-03-30T17:19:42.045Z,4.63
2023-03-30T17:22:27.858Z,4.10
2023-03-30T17:25:14.511Z,4.38
2023-03-30T17:28:01.163Z,4.55
2023-03-30T17:30:47.133Z,4.93
2023-03-30T17:33:34.356Z,4.28
2023-03-30T17:36:22.211Z,3.88
2023-03-30T17:39:12.642Z,6.32
2023-03-30T17:42:00.136Z,4.80
2023-03-30T17:44:46.385Z,4.93
2023-03-30T17:47:32.133Z,3.28
2023-03-30T17:50:28.842Z,3.90
2023-03-30T17:53:18.682Z,4.68
2023-03-30T17:56:05.159Z,4.75
2023-03-30T17:58:53.194Z,5.00
2023-03-30T18:01:39.901Z,6.53
2023-03-30T18:04:27.166Z,7.40
2023-03-30T18:07:13.562Z,13.18
2023-03-30T18:09:59.386Z,6.63
2023-03-30T18:12:45.789Z,6.13
2023-03-30T18:15:32.712Z,6.60
2023-03-30T18:18:23.031Z,6.32
2023-03-30T18:21:10.147Z,3.70
2023-03-30T18:23:57.122Z,5.65
2023-03-30T18:26:43.811Z,5.38
2023-03-30T18:29:30.544Z,4.18
2023-03-30T18:32:16.571Z,5.43
2023-03-30T18:35:02.688Z,6.00
2023-03-30T18:37:49.092Z,5.38
2023-03-30T18:40:45.510Z,5.65
2023-03-30T18:43:31.589Z,4.47
2023-03-30T18:46:17.587Z,4.90
2023-03-30T18:49:03.676Z,5.15
2023-03-30T18:51:49.744Z,4.78
2023-03-30T18:54:40.617Z,5.80
2023-03-30T18:57:27.202Z,6.50
2023-03-30T19:00:26.424Z,6.32
2023-03-30T19:03:15.459Z,4.95
2023-03-30T19:06:01.719Z,3.33
2023-03-30T19:08:47.635Z,4.55
2023-03-30T19:11:33.552Z,4.95
2023-03-30T19:14:19.406Z,4.75
2023-03-30T19:17:05.536Z,4.55
2023-03-30T19:19:51.614Z,4.63
2023-03-30T19:22:37.362Z,4.80
2023-03-30T19:25:24.726Z,5.13
2023-03-30T19:28:11.229Z,3.35
2023-03-30T19:31:06.852Z,3.28
2023-03-30T19:33:53.046Z,3.72
2023-03-30T19:36:38.853Z,3.25
2023-03-30T19:39:24.728Z,2.78
2023-03-30T19:42:10.688Z,3.40
2023-03-30T19:44:56.678Z,3.60
2023-03-30T19:47:43.805Z,2.92
2023-03-30T19:50:30.577Z,3.42
2023-03-30T19:53:16.727Z,3.85
2023-03-30T19:56:02.936Z,4.50
2023-03-30T19:58:49.182Z,3.15
2023-03-30T20:01:36.263Z,3.95
2023-03-30T20:04:22.615Z,4.07
2023-03-30T20:07:09.195Z,4.13
2023-03-30T20:09:54.966Z,4.15
2023-03-30T20:12:41.298Z,4.45
2023-03-30T20:15:27.341Z,4.72
2023-03-30T20:18:14.324Z,6.07
2023-03-30T20:21:03.476Z,4.18
2023-03-30T20:23:49.998Z,3.67
2023-03-30T20:26:36.016Z,3.88
2023-03-30T20:29:22.372Z,5.13
2023-03-30T20:32:08.348Z,4.90
2023-03-30T20:34:54.946Z,5.43
2023-03-30T20:37:41.315Z,5.03
2023-03-30T20:40:27.461Z,4.82
2023-03-30T20:43:13.655Z,5.05
2023-03-30T20:46:03.420Z,5.75
2023-03-30T20:48:54.103Z,7.70
2023-03-30T20:51:40.259Z,6.65
2023-03-30T20:54:29.606Z,3.92
2023-03-30T20:57:16.027Z,4.10
2023-03-30T21:00:09.557Z,4.68
2023-03-30T21:02:55.628Z,4.78
2023-03-30T21:05:41.476Z,3.88
2023-03-30T21:08:27.674Z,3.83
2023-03-30T21:11:13.470Z,4.38
2023-03-30T21:13:59.480Z,4.18
2023-03-30T21:16:45.472Z,3.10
2023-03-30T21:19:31.569Z,3.38
2023-03-30T21:22:18.887Z,5.32
2023-03-30T21:25:05.345Z,4.15
2023-03-30T21:27:51.265Z,3.42
2023-03-30T21:30:37.107Z,4.18
2023-03-30T21:33:24.659Z,3.80
2023-03-30T21:36:11.629Z,3.30
2023-03-30T21:38:59.482Z,3.97
2023-03-30T21:41:45.586Z,3.53
2023-03-30T21:44:35.846Z,4.97
2023-03-30T21:47:21.501Z,3.95
2023-03-30T21:50:08.105Z,3.85
2023-03-30T21:52:58.240Z,3.47
2023-03-30T21:55:48.436Z,3.88
2023-03-30T21:58:35.012Z,3.80
2023-03-30T22:01:24.161Z,4.75
2023-03-30T22:04:10.201Z,3.95
2023-03-30T22:06:56.551Z,3.85
2023-03-30T22:09:42.504Z,3.20
2023-03-30T22:12:28.352Z,3.38
2023-03-30T22:15:14.284Z,4.60
2023-03-30T22:18:01.122Z,3.90
2023-03-30T22:20:47.382Z,3.60
2023-03-30T22:23:33.592Z,4.20
2023-03-30T22:26:19.766Z,4.00
2023-03-30T22:29:05.842Z,2.90
2023-03-30T22:31:56.360Z,4.65
2023-03-30T22:34:42.501Z,2.65
2023-03-30T22:37:29.978Z,4.18
2023-03-30T22:40:16.457Z,4.13
2023-03-30T22:43:05.615Z,7.15
2023-03-30T22:45:51.717Z,4.45
2023-03-30T22:48:41.494Z,3.88
2023-03-30T22:51:27.582Z,3.33
2023-03-30T22:54:13.445Z,5.15
2023-03-30T22:57:00.268Z,4.03
2023-03-30T22:59:46.796Z,3.97
2023-03-30T23:02:32.935Z,2.95
2023-03-30T23:05:21.355Z,3.00
2023-03-30T23:08:07.216Z,4.60
2023-03-30T23:10:53.970Z,5.15
2023-03-30T23:13:42.290Z,4.50
2023-03-30T23:16:28.854Z,4.25
2023-03-30T23:19:14.958Z,2.78
2023-03-30T23:22:01.241Z,3.50
2023-03-30T23:24:47.271Z,2.63
2023-03-30T23:27:36.950Z,3.22
2023-03-30T23:30:23.251Z,2.58
2023-03-30T23:33:09.182Z,3.28
2023-03-30T23:35:55.101Z,2.60
2023-03-30T23:38:41.494Z,2.63
2023-03-30T23:41:29.084Z,2.50
2023-03-30T23:44:15.518Z,2.97
2023-03-30T23:47:02.358Z,2.80
2023-03-30T23:49:48.154Z,2.80
2023-03-30T23:52:34.560Z,3.22
2023-03-30T23:55:20.439Z,2.95
2023-03-30T23:58:06.341Z,2.92
